sensor_id;sensor_type;location;lat;lon;timestamp;P1;durP1;ratioP1;P2;durP2;ratioP2
5458;SDS011;2752;49.992;8.422;2023-11-21T00:01:07;10.93;;;2.97;;
5458;SDS011;2752;49.992;8.422;2023-11-21T00:03:34;8.40;;;2.70;;
5458;SDS011;2752;49.992;8.422;2023-11-21T00:06:01;5.27;;;2.50;;
5458;SDS011;2752;49.992;8.422;2023-11-21T00:08:28;9.40;;;2.50;;
5458;SDS011;2752;49.992;8.422;2023-11-21T00:10:55;9.43;;;3.20;;
5458;SDS011;2752;49.992;8.422;2023-11-21T00:13:25;8.40;;;2.83;;
5458;SDS011;2752;49.992;8.422;2023-11-21T00:15:53;13.63;;;3.80;;
5458;SDS011;2752;49.992;8.422;2023-11-21T00:18:20;9.23;;;3.60;;
5458;SDS011;2752;49.992;8.422;2023-11-21T00:20:47;9.43;;;4.00;;
5458;SDS011;2752;49.992;8.422;2023-11-21T00:23:14;9.70;;;4.30;;
5458;SDS011;2752;49.992;8.422;2023-11-21T00:25:41;14.07;;;2.87;;
5458;SDS011;2752;49.992;8.422;2023-11-21T00:28:09;7.80;;;2.40;;
5458;SDS011;2752;49.992;8.422;2023-11-21T00:30:36;7.33;;;2.00;;
5458;SDS011;2752;49.992;8.422;2023-11-21T00:33:04;3.07;;;2.00;;
5458;SDS011;2752;49.992;8.422;2023-11-21T00:35:31;6.10;;;2.27;;
5458;SDS011;2752;49.992;8.422;2023-11-21T00:37:58;5.17;;;2.17;;
5458;SDS011;2752;49.992;8.422;2023-11-21T00:40:25;4.50;;;1.63;;
5458;SDS011;2752;49.992;8.422;2023-11-21T00:42:52;3.53;;;2.10;;
5458;SDS011;2752;49.992;8.422;2023-11-21T00:45:21;3.23;;;1.90;;
5458;SDS011;2752;49.992;8.422;2023-11-21T00:47:48;7.00;;;1.87;;
5458;SDS011;2752;49.992;8.422;2023-11-21T00:50:16;11.67;;;2.70;;
5458;SDS011;2752;49.992;8.422;2023-11-21T00:52:43;5.07;;;2.40;;
5458;SDS011;2752;49.992;8.422;2023-11-21T00:55:10;11.50;;;2.33;;
5458;SDS011;2752;49.992;8.422;2023-11-21T00:57:37;8.20;;;1.93;;
5458;SDS011;2752;49.992;8.422;2023-11-21T01:00:05;4.07;;;2.13;;
5458;SDS011;2752;49.992;8.422;2023-11-21T01:02:33;4.10;;;2.03;;
5458;SDS011;2752;49.992;8.422;2023-11-21T01:05:01;2.50;;;1.77;;
5458;SDS011;2752;49.992;8.422;2023-11-21T01:07:30;2.67;;;1.70;;
5458;SDS011;2752;49.992;8.422;2023-11-21T01:09:57;4.67;;;1.97;;
5458;SDS011;2752;49.992;8.422;2023-11-21T01:12:24;4.13;;;2.10;;
5458;SDS011;2752;49.992;8.422;2023-11-21T01:14:51;3.80;;;2.00;;
5458;SDS011;2752;49.992;8.422;2023-11-21T01:17:18;3.93;;;1.87;;
5458;SDS011;2752;49.992;8.422;2023-11-21T01:19:47;9.10;;;2.23;;
5458;SDS011;2752;49.992;8.422;2023-11-21T01:22:14;2.90;;;1.73;;
5458;SDS011;2752;49.992;8.422;2023-11-21T01:24:44;9.77;;;3.47;;
5458;SDS011;2752;49.992;8.422;2023-11-21T01:27:11;3.10;;;2.07;;
5458;SDS011;2752;49.992;8.422;2023-11-21T01:29:38;2.67;;;1.83;;
5458;SDS011;2752;49.992;8.422;2023-11-21T01:32:05;7.03;;;2.13;;
5458;SDS011;2752;49.992;8.422;2023-11-21T01:34:33;5.13;;;2.13;;
5458;SDS011;2752;49.992;8.422;2023-11-21T01:37:00;4.70;;;2.03;;
5458;SDS011;2752;49.992;8.422;2023-11-21T01:39:29;5.23;;;2.07;;
5458;SDS011;2752;49.992;8.422;2023-11-21T01:41:57;4.40;;;3.27;;
5458;SDS011;2752;49.992;8.422;2023-11-21T01:44:24;7.20;;;1.93;;
5458;SDS011;2752;49.992;8.422;2023-11-21T01:46:51;6.80;;;3.20;;
5458;SDS011;2752;49.992;8.422;2023-11-21T01:49:19;4.23;;;2.40;;
5458;SDS011;2752;49.992;8.422;2023-11-21T01:51:47;5.30;;;2.73;;
5458;SDS011;2752;49.992;8.422;2023-11-21T01:54:16;4.53;;;3.37;;
5458;SDS011;2752;49.992;8.422;2023-11-21T01:56:43;5.53;;;2.70;;
5458;SDS011;2752;49.992;8.422;2023-11-21T01:59:12;4.67;;;2.80;;
5458;SDS011;2752;49.992;8.422;2023-11-21T02:01:39;13.23;;;2.77;;
5458;SDS011;2752;49.992;8.422;2023-11-21T02:04:07;4.60;;;2.40;;
5458;SDS011;2752;49.992;8.422;2023-11-21T02:06:34;4.93;;;2.30;;
5458;SDS011;2752;49.992;8.422;2023-11-21T02:09:01;17.33;;;3.33;;
5458;SDS011;2752;49.992;8.422;2023-11-21T02:11:29;8.40;;;2.50;;
5458;SDS011;2752;49.992;8.422;2023-11-21T02:13:59;3.13;;;2.30;;
5458;SDS011;2752;49.992;8.422;2023-11-21T02:16:28;3.80;;;2.30;;
5458;SDS011;2752;49.992;8.422;2023-11-21T02:18:56;6.97;;;2.87;;
5458;SDS011;2752;49.992;8.422;2023-11-21T02:21:24;3.40;;;2.33;;
5458;SDS011;2752;49.992;8.422;2023-11-21T02:23:52;6.10;;;2.73;;
5458;SDS011;2752;49.992;8.422;2023-11-21T02:26:20;2.47;;;1.90;;
5458;SDS011;2752;49.992;8.422;2023-11-21T02:28:47;4.17;;;2.30;;
5458;SDS011;2752;49.992;8.422;2023-11-21T02:31:14;3.67;;;2.77;;
5458;SDS011;2752;49.992;8.422;2023-11-21T02:33:41;4.63;;;2.47;;
5458;SDS011;2752;49.992;8.422;2023-11-21T02:36:09;6.93;;;2.77;;
5458;SDS011;2752;49.992;8.422;2023-11-21T02:38:36;15.67;;;2.80;;
5458;SDS011;2752;49.992;8.422;2023-11-21T02:41:04;8.33;;;2.73;;
5458;SDS011;2752;49.992;8.422;2023-11-21T02:43:31;3.73;;;2.40;;
5458;SDS011;2752;49.992;8.422;2023-11-21T02:45:58;5.97;;;2.50;;
5458;SDS011;2752;49.992;8.422;2023-11-21T02:48:25;6.30;;;2.80;;
5458;SDS011;2752;49.992;8.422;2023-11-21T02:50:52;11.00;;;3.07;;
5458;SDS011;2752;49.992;8.422;2023-11-21T02:53:19;5.53;;;2.90;;
5458;SDS011;2752;49.992;8.422;2023-11-21T02:55:46;5.63;;;2.87;;
5458;SDS011;2752;49.992;8.422;2023-11-21T02:58:14;7.20;;;3.13;;
5458;SDS011;2752;49.992;8.422;2023-11-21T03:00:41;7.43;;;3.20;;
5458;SDS011;2752;49.992;8.422;2023-11-21T03:03:08;7.37;;;3.47;;
5458;SDS011;2752;49.992;8.422;2023-11-21T03:05:35;5.60;;;3.57;;
5458;SDS011;2752;49.992;8.422;2023-11-21T03:08:03;8.77;;;3.87;;
5458;SDS011;2752;49.992;8.422;2023-11-21T03:10:30;5.67;;;3.87;;
5458;SDS011;2752;49.992;8.422;2023-11-21T03:12:58;6.07;;;3.73;;
5458;SDS011;2752;49.992;8.422;2023-11-21T03:15:26;6.60;;;3.77;;
5458;SDS011;2752;49.992;8.422;2023-11-21T03:17:53;7.30;;;3.43;;
5458;SDS011;2752;49.992;8.422;2023-11-21T03:20:20;5.00;;;3.60;;
5458;SDS011;2752;49.992;8.422;2023-11-21T03:22:47;5.60;;;3.47;;
5458;SDS011;2752;49.992;8.422;2023-11-21T03:25:14;9.20;;;4.60;;
5458;SDS011;2752;49.992;8.422;2023-11-21T03:27:42;6.47;;;3.50;;
5458;SDS011;2752;49.992;8.422;2023-11-21T03:30:09;7.77;;;4.80;;
5458;SDS011;2752;49.992;8.422;2023-11-21T03:32:38;7.20;;;4.23;;
5458;SDS011;2752;49.992;8.422;2023-11-21T03:35:05;9.87;;;4.40;;
5458;SDS011;2752;49.992;8.422;2023-11-21T03:37:32;8.17;;;5.10;;
5458;SDS011;2752;49.992;8.422;2023-11-21T03:39:59;7.53;;;4.37;;
5458;SDS011;2752;49.992;8.422;2023-11-21T03:42:29;7.90;;;3.90;;
5458;SDS011;2752;49.992;8.422;2023-11-21T03:44:55;16.47;;;4.70;;
5458;SDS011;2752;49.992;8.422;2023-11-21T03:47:22;6.27;;;4.40;;
5458;SDS011;2752;49.992;8.422;2023-11-21T03:49:51;11.47;;;5.20;;
5458;SDS011;2752;49.992;8.422;2023-11-21T03:52:18;5.03;;;3.53;;
5458;SDS011;2752;49.992;8.422;2023-11-21T03:54:45;9.90;;;4.60;;
5458;SDS011;2752;49.992;8.422;2023-11-21T03:57:12;11.07;;;5.27;;
5458;SDS011;2752;49.992;8.422;2023-11-21T03:59:39;11.37;;;5.63;;
5458;SDS011;2752;49.992;8.422;2023-11-21T04:02:08;11.90;;;5.70;;
5458;SDS011;2752;49.992;8.422;2023-11-21T04:04:35;10.97;;;6.53;;
5458;SDS011;2752;49.992;8.422;2023-11-21T04:07:03;9.93;;;5.83;;
5458;SDS011;2752;49.992;8.422;2023-11-21T04:09:30;16.13;;;5.80;;
5458;SDS011;2752;49.992;8.422;2023-11-21T04:11:57;11.93;;;6.33;;
5458;SDS011;2752;49.992;8.422;2023-11-21T04:14:24;9.90;;;5.20;;
5458;SDS011;2752;49.992;8.422;2023-11-21T04:16:51;13.93;;;6.10;;
5458;SDS011;2752;49.992;8.422;2023-11-21T04:19:19;15.37;;;5.50;;
5458;SDS011;2752;49.992;8.422;2023-11-21T04:21:46;14.20;;;6.57;;
5458;SDS011;2752;49.992;8.422;2023-11-21T04:24:14;13.63;;;6.30;;
5458;SDS011;2752;49.992;8.422;2023-11-21T04:26:41;14.97;;;6.97;;
5458;SDS011;2752;49.992;8.422;2023-11-21T04:29:08;16.10;;;6.97;;
5458;SDS011;2752;49.992;8.422;2023-11-21T04:31:35;15.77;;;6.53;;
5458;SDS011;2752;49.992;8.422;2023-11-21T04:34:02;12.33;;;6.27;;
5458;SDS011;2752;49.992;8.422;2023-11-21T04:36:29;12.87;;;6.00;;
5458;SDS011;2752;49.992;8.422;2023-11-21T04:38:56;13.33;;;6.40;;
5458;SDS011;2752;49.992;8.422;2023-11-21T04:41:25;14.43;;;6.67;;
5458;SDS011;2752;49.992;8.422;2023-11-21T04:43:52;14.40;;;6.60;;
5458;SDS011;2752;49.992;8.422;2023-11-21T04:46:19;12.87;;;5.90;;
5458;SDS011;2752;49.992;8.422;2023-11-21T04:48:46;13.13;;;7.20;;
5458;SDS011;2752;49.992;8.422;2023-11-21T04:51:13;13.27;;;6.10;;
5458;SDS011;2752;49.992;8.422;2023-11-21T04:53:40;10.37;;;5.43;;
5458;SDS011;2752;49.992;8.422;2023-11-21T04:56:07;14.47;;;6.30;;
5458;SDS011;2752;49.992;8.422;2023-11-21T04:58:36;14.80;;;6.87;;
5458;SDS011;2752;49.992;8.422;2023-11-21T05:01:05;12.27;;;6.70;;
5458;SDS011;2752;49.992;8.422;2023-11-21T05:03:32;13.67;;;6.13;;
5458;SDS011;2752;49.992;8.422;2023-11-21T05:05:59;13.70;;;6.77;;
5458;SDS011;2752;49.992;8.422;2023-11-21T05:08:26;11.90;;;6.43;;
5458;SDS011;2752;49.992;8.422;2023-11-21T05:10:53;17.33;;;7.47;;
5458;SDS011;2752;49.992;8.422;2023-11-21T05:13:20;14.87;;;6.30;;
5458;SDS011;2752;49.992;8.422;2023-11-21T05:15:49;15.70;;;6.40;;
5458;SDS011;2752;49.992;8.422;2023-11-21T05:18:16;12.97;;;6.80;;
5458;SDS011;2752;49.992;8.422;2023-11-21T05:20:43;12.63;;;6.80;;
5458;SDS011;2752;49.992;8.422;2023-11-21T05:23:10;15.50;;;6.53;;
5458;SDS011;2752;49.992;8.422;2023-11-21T05:25:37;18.93;;;6.90;;
5458;SDS011;2752;49.992;8.422;2023-11-21T05:28:04;14.47;;;6.53;;
5458;SDS011;2752;49.992;8.422;2023-11-21T05:30:31;15.57;;;6.30;;
5458;SDS011;2752;49.992;8.422;2023-11-21T05:33:00;15.83;;;6.80;;
5458;SDS011;2752;49.992;8.422;2023-11-21T05:35:27;14.70;;;5.77;;
5458;SDS011;2752;49.992;8.422;2023-11-21T05:37:54;13.50;;;6.60;;
5458;SDS011;2752;49.992;8.422;2023-11-21T05:40:21;15.20;;;7.00;;
5458;SDS011;2752;49.992;8.422;2023-11-21T05:42:48;11.87;;;5.10;;
5458;SDS011;2752;49.992;8.422;2023-11-21T05:45:16;11.17;;;6.07;;
5458;SDS011;2752;49.992;8.422;2023-11-21T05:47:44;14.87;;;5.37;;
5458;SDS011;2752;49.992;8.422;2023-11-21T05:50:13;14.90;;;5.53;;
5458;SDS011;2752;49.992;8.422;2023-11-21T05:52:41;9.27;;;5.10;;
5458;SDS011;2752;49.992;8.422;2023-11-21T05:55:09;10.97;;;5.07;;
5458;SDS011;2752;49.992;8.422;2023-11-21T05:57:36;18.77;;;5.70;;
5458;SDS011;2752;49.992;8.422;2023-11-21T06:00:03;11.10;;;4.87;;
5458;SDS011;2752;49.992;8.422;2023-11-21T06:02:36;11.67;;;4.40;;
5458;SDS011;2752;49.992;8.422;2023-11-21T06:05:04;14.63;;;5.57;;
5458;SDS011;2752;49.992;8.422;2023-11-21T06:07:32;15.03;;;5.30;;
5458;SDS011;2752;49.992;8.422;2023-11-21T06:10:00;12.27;;;5.60;;
5458;SDS011;2752;49.992;8.422;2023-11-21T06:12:27;14.73;;;5.37;;
5458;SDS011;2752;49.992;8.422;2023-11-21T06:14:55;10.67;;;5.13;;
5458;SDS011;2752;49.992;8.422;2023-11-21T06:17:22;11.37;;;5.47;;
5458;SDS011;2752;49.992;8.422;2023-11-21T06:19:50;12.07;;;5.60;;
5458;SDS011;2752;49.992;8.422;2023-11-21T06:22:18;8.07;;;4.93;;
5458;SDS011;2752;49.992;8.422;2023-11-21T06:24:46;9.47;;;5.20;;
5458;SDS011;2752;49.992;8.422;2023-11-21T06:27:13;8.27;;;5.00;;
5458;SDS011;2752;49.992;8.422;2023-11-21T06:29:41;10.23;;;4.90;;
5458;SDS011;2752;49.992;8.422;2023-11-21T06:32:08;10.97;;;5.20;;
5458;SDS011;2752;49.992;8.422;2023-11-21T06:34:35;13.77;;;6.00;;
5458;SDS011;2752;49.992;8.422;2023-11-21T06:37:02;10.70;;;5.33;;
5458;SDS011;2752;49.992;8.422;2023-11-21T06:39:29;11.60;;;6.30;;
5458;SDS011;2752;49.992;8.422;2023-11-21T06:41:58;17.20;;;5.93;;
5458;SDS011;2752;49.992;8.422;2023-11-21T06:44:25;12.57;;;5.40;;
5458;SDS011;2752;49.992;8.422;2023-11-21T06:46:53;11.87;;;5.40;;
5458;SDS011;2752;49.992;8.422;2023-11-21T06:49:20;11.40;;;5.47;;
5458;SDS011;2752;49.992;8.422;2023-11-21T06:51:48;9.73;;;4.43;;
5458;SDS011;2752;49.992;8.422;2023-11-21T06:54:15;11.73;;;6.10;;
5458;SDS011;2752;49.992;8.422;2023-11-21T06:56:42;10.30;;;4.73;;
5458;SDS011;2752;49.992;8.422;2023-11-21T06:59:10;10.27;;;4.50;;
5458;SDS011;2752;49.992;8.422;2023-11-21T07:01:37;10.23;;;5.00;;
5458;SDS011;2752;49.992;8.422;2023-11-21T07:04:06;10.30;;;4.60;;
5458;SDS011;2752;49.992;8.422;2023-11-21T07:06:34;8.20;;;4.80;;
5458;SDS011;2752;49.992;8.422;2023-11-21T07:09:03;14.00;;;4.30;;
5458;SDS011;2752;49.992;8.422;2023-11-21T07:11:30;10.27;;;4.93;;
5458;SDS011;2752;49.992;8.422;2023-11-21T07:13:57;8.37;;;4.17;;
5458;SDS011;2752;49.992;8.422;2023-11-21T07:16:26;8.23;;;4.50;;
5458;SDS011;2752;49.992;8.422;2023-11-21T07:18:55;9.50;;;4.73;;
5458;SDS011;2752;49.992;8.422;2023-11-21T07:21:22;6.40;;;3.57;;
5458;SDS011;2752;49.992;8.422;2023-11-21T07:23:49;7.20;;;3.73;;
5458;SDS011;2752;49.992;8.422;2023-11-21T07:26:16;5.83;;;3.50;;
5458;SDS011;2752;49.992;8.422;2023-11-21T07:28:44;7.37;;;3.93;;
5458;SDS011;2752;49.992;8.422;2023-11-21T07:31:11;8.27;;;4.57;;
5458;SDS011;2752;49.992;8.422;2023-11-21T07:33:39;7.30;;;4.00;;
5458;SDS011;2752;49.992;8.422;2023-11-21T07:36:06;9.00;;;4.70;;
5458;SDS011;2752;49.992;8.422;2023-11-21T07:38:35;9.40;;;4.90;;
5458;SDS011;2752;49.992;8.422;2023-11-21T07:41:02;9.53;;;4.43;;
5458;SDS011;2752;49.992;8.422;2023-11-21T07:43:29;8.50;;;4.70;;
5458;SDS011;2752;49.992;8.422;2023-11-21T07:46:00;7.00;;;3.97;;
5458;SDS011;2752;49.992;8.422;2023-11-21T07:48:27;9.63;;;4.03;;
5458;SDS011;2752;49.992;8.422;2023-11-21T07:50:56;9.57;;;3.90;;
5458;SDS011;2752;49.992;8.422;2023-11-21T07:53:23;9.07;;;4.40;;
5458;SDS011;2752;49.992;8.422;2023-11-21T07:55:50;8.57;;;5.10;;
5458;SDS011;2752;49.992;8.422;2023-11-21T07:58:17;15.23;;;4.70;;
5458;SDS011;2752;49.992;8.422;2023-11-21T08:00:44;7.20;;;4.10;;
5458;SDS011;2752;49.992;8.422;2023-11-21T08:03:13;11.73;;;3.97;;
5458;SDS011;2752;49.992;8.422;2023-11-21T08:05:40;6.80;;;3.80;;
5458;SDS011;2752;49.992;8.422;2023-11-21T08:08:08;7.30;;;4.40;;
5458;SDS011;2752;49.992;8.422;2023-11-21T08:10:36;5.70;;;3.50;;
5458;SDS011;2752;49.992;8.422;2023-11-21T08:13:04;6.07;;;4.10;;
5458;SDS011;2752;49.992;8.422;2023-11-21T08:15:31;10.77;;;4.27;;
5458;SDS011;2752;49.992;8.422;2023-11-21T08:17:58;7.83;;;4.07;;
5458;SDS011;2752;49.992;8.422;2023-11-21T08:20:25;8.60;;;4.90;;
5458;SDS011;2752;49.992;8.422;2023-11-21T08:22:53;8.50;;;4.73;;
5458;SDS011;2752;49.992;8.422;2023-11-21T08:25:23;7.43;;;4.47;;
5458;SDS011;2752;49.992;8.422;2023-11-21T08:27:50;9.80;;;4.50;;
5458;SDS011;2752;49.992;8.422;2023-11-21T08:30:17;9.67;;;3.27;;
5458;SDS011;2752;49.992;8.422;2023-11-21T08:32:47;7.20;;;4.00;;
5458;SDS011;2752;49.992;8.422;2023-11-21T08:35:14;6.70;;;3.20;;
5458;SDS011;2752;49.992;8.422;2023-11-21T08:37:41;5.80;;;3.70;;
5458;SDS011;2752;49.992;8.422;2023-11-21T08:40:09;4.87;;;2.93;;
5458;SDS011;2752;49.992;8.422;2023-11-21T08:42:42;4.90;;;2.77;;
5458;SDS011;2752;49.992;8.422;2023-11-21T08:45:10;5.00;;;2.70;;
5458;SDS011;2752;49.992;8.422;2023-11-21T08:47:37;4.33;;;2.73;;
5458;SDS011;2752;49.992;8.422;2023-11-21T08:50:05;4.50;;;2.90;;
5458;SDS011;2752;49.992;8.422;2023-11-21T08:52:32;4.90;;;2.73;;
5458;SDS011;2752;49.992;8.422;2023-11-21T08:55:00;5.60;;;3.30;;
5458;SDS011;2752;49.992;8.422;2023-11-21T08:57:32;6.03;;;2.63;;
5458;SDS011;2752;49.992;8.422;2023-11-21T09:00:01;3.30;;;2.70;;
5458;SDS011;2752;49.992;8.422;2023-11-21T09:02:30;4.17;;;2.63;;
5458;SDS011;2752;49.992;8.422;2023-11-21T09:04:58;3.77;;;2.73;;
5458;SDS011;2752;49.992;8.422;2023-11-21T09:07:28;3.47;;;2.10;;
5458;SDS011;2752;49.992;8.422;2023-11-21T09:09:55;8.70;;;3.17;;
5458;SDS011;2752;49.992;8.422;2023-11-21T09:12:22;4.03;;;2.70;;
5458;SDS011;2752;49.992;8.422;2023-11-21T09:14:51;4.80;;;2.90;;
5458;SDS011;2752;49.992;8.422;2023-11-21T09:17:19;2.80;;;2.20;;
5458;SDS011;2752;49.992;8.422;2023-11-21T09:19:46;9.10;;;2.80;;
5458;SDS011;2752;49.992;8.422;2023-11-21T09:22:16;2.37;;;2.03;;
5458;SDS011;2752;49.992;8.422;2023-11-21T09:24:43;4.17;;;2.30;;
5458;SDS011;2752;49.992;8.422;2023-11-21T09:27:10;3.80;;;2.50;;
5458;SDS011;2752;49.992;8.422;2023-11-21T09:29:37;9.57;;;3.33;;
5458;SDS011;2752;49.992;8.422;2023-11-21T09:32:05;4.83;;;2.83;;
5458;SDS011;2752;49.992;8.422;2023-11-21T09:34:34;3.40;;;1.60;;
5458;SDS011;2752;49.992;8.422;2023-11-21T09:37:03;9.87;;;3.77;;
5458;SDS011;2752;49.992;8.422;2023-11-21T09:39:31;5.33;;;2.40;;
5458;SDS011;2752;49.992;8.422;2023-11-21T09:41:59;6.70;;;2.80;;
5458;SDS011;2752;49.992;8.422;2023-11-21T09:44:31;4.43;;;2.43;;
5458;SDS011;2752;49.992;8.422;2023-11-21T09:46:59;4.47;;;2.00;;
5458;SDS011;2752;49.992;8.422;2023-11-21T09:49:26;3.90;;;2.00;;
5458;SDS011;2752;49.992;8.422;2023-11-21T09:51:55;4.53;;;1.70;;
5458;SDS011;2752;49.992;8.422;2023-11-21T09:54:22;7.07;;;2.30;;
5458;SDS011;2752;49.992;8.422;2023-11-21T09:56:50;3.20;;;2.10;;
5458;SDS011;2752;49.992;8.422;2023-11-21T09:59:17;3.63;;;2.03;;
5458;SDS011;2752;49.992;8.422;2023-11-21T10:01:44;8.37;;;2.00;;
5458;SDS011;2752;49.992;8.422;2023-11-21T10:04:11;2.93;;;2.10;;
5458;SDS011;2752;49.992;8.422;2023-11-21T10:06:39;9.70;;;2.10;;
5458;SDS011;2752;49.992;8.422;2023-11-21T10:09:08;4.13;;;2.40;;
5458;SDS011;2752;49.992;8.422;2023-11-21T10:11:37;11.33;;;2.47;;
5458;SDS011;2752;49.992;8.422;2023-11-21T10:14:07;8.13;;;1.90;;
5458;SDS011;2752;49.992;8.422;2023-11-21T10:16:35;3.40;;;1.60;;
5458;SDS011;2752;49.992;8.422;2023-11-21T10:19:03;6.07;;;2.00;;
5458;SDS011;2752;49.992;8.422;2023-11-21T10:21:31;9.60;;;1.80;;
5458;SDS011;2752;49.992;8.422;2023-11-21T10:23:59;4.13;;;2.10;;
5458;SDS011;2752;49.992;8.422;2023-11-21T10:26:27;4.80;;;2.20;;
5458;SDS011;2752;49.992;8.422;2023-11-21T10:28:56;3.20;;;1.53;;
5458;SDS011;2752;49.992;8.422;2023-11-21T10:31:24;6.67;;;2.50;;
5458;SDS011;2752;49.992;8.422;2023-11-21T10:33:51;2.90;;;1.77;;
5458;SDS011;2752;49.992;8.422;2023-11-21T10:36:24;6.47;;;2.10;;
5458;SDS011;2752;49.992;8.422;2023-11-21T10:38:52;5.27;;;2.30;;
5458;SDS011;2752;49.992;8.422;2023-11-21T10:41:19;3.97;;;2.27;;
5458;SDS011;2752;49.992;8.422;2023-11-21T10:43:48;4.17;;;1.87;;
5458;SDS011;2752;49.992;8.422;2023-11-21T10:46:15;5.83;;;1.97;;
5458;SDS011;2752;49.992;8.422;2023-11-21T10:48:42;3.40;;;1.70;;
5458;SDS011;2752;49.992;8.422;2023-11-21T10:51:11;5.00;;;2.07;;
5458;SDS011;2752;49.992;8.422;2023-11-21T10:53:39;5.80;;;2.83;;
5458;SDS011;2752;49.992;8.422;2023-11-21T10:56:08;4.50;;;1.70;;
5458;SDS011;2752;49.992;8.422;2023-11-21T10:58:36;4.57;;;2.10;;
5458;SDS011;2752;49.992;8.422;2023-11-21T11:01:06;8.33;;;2.10;;
5458;SDS011;2752;49.992;8.422;2023-11-21T11:03:36;4.40;;;1.80;;
5458;SDS011;2752;49.992;8.422;2023-11-21T11:06:04;5.43;;;2.57;;
5458;SDS011;2752;49.992;8.422;2023-11-21T11:08:36;5.60;;;2.37;;
5458;SDS011;2752;49.992;8.422;2023-11-21T11:11:04;7.03;;;2.03;;
5458;SDS011;2752;49.992;8.422;2023-11-21T11:13:31;5.97;;;1.80;;
5458;SDS011;2752;49.992;8.422;2023-11-21T11:15:58;7.63;;;2.30;;
5458;SDS011;2752;49.992;8.422;2023-11-21T11:18:28;3.83;;;2.07;;
5458;SDS011;2752;49.992;8.422;2023-11-21T11:20:55;3.03;;;1.83;;
5458;SDS011;2752;49.992;8.422;2023-11-21T11:23:29;3.00;;;2.03;;
5458;SDS011;2752;49.992;8.422;2023-11-21T11:26:03;2.23;;;1.80;;
5458;SDS011;2752;49.992;8.422;2023-11-21T11:28:35;8.23;;;2.10;;
5458;SDS011;2752;49.992;8.422;2023-11-21T11:31:13;10.30;;;2.50;;
5458;SDS011;2752;49.992;8.422;2023-11-21T11:33:43;11.23;;;2.60;;
5458;SDS011;2752;49.992;8.422;2023-11-21T11:36:14;4.47;;;2.13;;
5458;SDS011;2752;49.992;8.422;2023-11-21T11:38:45;4.67;;;2.00;;
5458;SDS011;2752;49.992;8.422;2023-11-21T11:41:19;6.20;;;2.37;;
5458;SDS011;2752;49.992;8.422;2023-11-21T11:43:50;5.10;;;2.23;;
5458;SDS011;2752;49.992;8.422;2023-11-21T11:46:18;5.33;;;2.17;;
5458;SDS011;2752;49.992;8.422;2023-11-21T11:48:47;3.03;;;1.80;;
5458;SDS011;2752;49.992;8.422;2023-11-21T11:51:15;5.73;;;2.40;;
5458;SDS011;2752;49.992;8.422;2023-11-21T11:53:45;2.80;;;1.90;;
5458;SDS011;2752;49.992;8.422;2023-11-21T11:56:19;2.70;;;1.60;;
5458;SDS011;2752;49.992;8.422;2023-11-21T11:58:47;4.20;;;2.20;;
5458;SDS011;2752;49.992;8.422;2023-11-21T12:01:16;3.83;;;1.93;;
5458;SDS011;2752;49.992;8.422;2023-11-21T12:03:43;4.40;;;2.43;;
5458;SDS011;2752;49.992;8.422;2023-11-21T12:06:13;7.40;;;2.30;;
5458;SDS011;2752;49.992;8.422;2023-11-21T12:08:41;4.80;;;2.00;;
5458;SDS011;2752;49.992;8.422;2023-11-21T12:11:09;6.10;;;2.47;;
5458;SDS011;2752;49.992;8.422;2023-11-21T12:13:38;7.97;;;2.00;;
5458;SDS011;2752;49.992;8.422;2023-11-21T12:16:06;3.93;;;2.03;;
5458;SDS011;2752;49.992;8.422;2023-11-21T12:18:33;3.60;;;2.10;;
5458;SDS011;2752;49.992;8.422;2023-11-21T12:21:00;2.20;;;1.67;;
5458;SDS011;2752;49.992;8.422;2023-11-21T12:23:29;6.30;;;2.23;;
5458;SDS011;2752;49.992;8.422;2023-11-21T12:25:57;3.53;;;2.07;;
5458;SDS011;2752;49.992;8.422;2023-11-21T12:28:24;5.60;;;2.20;;
5458;SDS011;2752;49.992;8.422;2023-11-21T12:30:52;3.80;;;1.50;;
5458;SDS011;2752;49.992;8.422;2023-11-21T12:33:19;6.90;;;2.33;;
5458;SDS011;2752;49.992;8.422;2023-11-21T12:35:46;7.00;;;2.38;;
5458;SDS011;2752;49.992;8.422;2023-11-21T12:38:13;4.40;;;2.03;;
5458;SDS011;2752;49.992;8.422;2023-11-21T12:40:44;2.57;;;1.90;;
5458;SDS011;2752;49.992;8.422;2023-11-21T12:43:11;4.07;;;2.07;;
5458;SDS011;2752;49.992;8.422;2023-11-21T12:45:40;2.97;;;1.77;;
5458;SDS011;2752;49.992;8.422;2023-11-21T12:48:08;5.00;;;2.90;;
5458;SDS011;2752;49.992;8.422;2023-11-21T12:50:36;4.10;;;1.73;;
5458;SDS011;2752;49.992;8.422;2023-11-21T12:53:04;5.40;;;2.13;;
5458;SDS011;2752;49.992;8.422;2023-11-21T12:55:33;4.93;;;2.37;;
5458;SDS011;2752;49.992;8.422;2023-11-21T12:58:04;2.70;;;2.10;;
5458;SDS011;2752;49.992;8.422;2023-11-21T13:00:34;4.10;;;1.97;;
5458;SDS011;2752;49.992;8.422;2023-11-21T13:03:02;7.07;;;2.70;;
5458;SDS011;2752;49.992;8.422;2023-11-21T13:05:30;10.53;;;2.87;;
5458;SDS011;2752;49.992;8.422;2023-11-21T13:07:58;2.47;;;1.40;;
5458;SDS011;2752;49.992;8.422;2023-11-21T13:10:27;3.17;;;1.70;;
5458;SDS011;2752;49.992;8.422;2023-11-21T13:12:56;6.40;;;2.37;;
5458;SDS011;2752;49.992;8.422;2023-11-21T13:15:26;7.87;;;2.33;;
5458;SDS011;2752;49.992;8.422;2023-11-21T13:17:53;4.67;;;2.03;;
5458;SDS011;2752;49.992;8.422;2023-11-21T13:20:21;5.47;;;2.67;;
5458;SDS011;2752;49.992;8.422;2023-11-21T13:22:49;4.27;;;2.60;;
5458;SDS011;2752;49.992;8.422;2023-11-21T13:25:19;3.57;;;2.37;;
5458;SDS011;2752;49.992;8.422;2023-11-21T13:27:46;2.50;;;1.83;;
5458;SDS011;2752;49.992;8.422;2023-11-21T13:30:13;7.57;;;2.07;;
5458;SDS011;2752;49.992;8.422;2023-11-21T13:32:53;2.47;;;2.10;;
5458;SDS011;2752;49.992;8.422;2023-11-21T13:35:22;8.80;;;2.77;;
5458;SDS011;2752;49.992;8.422;2023-11-21T13:37:56;3.37;;;2.30;;
5458;SDS011;2752;49.992;8.422;2023-11-21T13:40:25;7.23;;;2.47;;
5458;SDS011;2752;49.992;8.422;2023-11-21T13:42:52;4.90;;;1.70;;
5458;SDS011;2752;49.992;8.422;2023-11-21T13:45:20;4.37;;;2.10;;
5458;SDS011;2752;49.992;8.422;2023-11-21T13:47:48;9.43;;;3.00;;
5458;SDS011;2752;49.992;8.422;2023-11-21T13:50:18;5.80;;;2.07;;
5458;SDS011;2752;49.992;8.422;2023-11-21T13:52:49;2.93;;;1.87;;
5458;SDS011;2752;49.992;8.422;2023-11-21T13:55:18;17.50;;;2.40;;
5458;SDS011;2752;49.992;8.422;2023-11-21T13:57:46;4.03;;;2.20;;
5458;SDS011;2752;49.992;8.422;2023-11-21T14:00:16;5.97;;;2.53;;
5458;SDS011;2752;49.992;8.422;2023-11-21T14:03:06;6.80;;;2.50;;
5458;SDS011;2752;49.992;8.422;2023-11-21T14:05:43;3.50;;;2.23;;
5458;SDS011;2752;49.992;8.422;2023-11-21T14:08:12;3.90;;;2.30;;
5458;SDS011;2752;49.992;8.422;2023-11-21T14:10:41;6.27;;;2.60;;
5458;SDS011;2752;49.992;8.422;2023-11-21T14:13:09;5.03;;;2.47;;
5458;SDS011;2752;49.992;8.422;2023-11-21T14:15:37;7.13;;;3.23;;
5458;SDS011;2752;49.992;8.422;2023-11-21T14:18:08;10.43;;;3.17;;
5458;SDS011;2752;49.992;8.422;2023-11-21T14:20:37;6.40;;;3.00;;
5458;SDS011;2752;49.992;8.422;2023-11-21T14:23:06;9.90;;;2.70;;
5458;SDS011;2752;49.992;8.422;2023-11-21T14:25:35;5.40;;;3.00;;
5458;SDS011;2752;49.992;8.422;2023-11-21T14:28:04;8.07;;;3.33;;
5458;SDS011;2752;49.992;8.422;2023-11-21T14:30:32;6.97;;;3.30;;
5458;SDS011;2752;49.992;8.422;2023-11-21T14:33:00;7.77;;;3.37;;
5458;SDS011;2752;49.992;8.422;2023-11-21T14:35:28;9.37;;;4.40;;
5458;SDS011;2752;49.992;8.422;2023-11-21T14:37:57;10.17;;;3.93;;
5458;SDS011;2752;49.992;8.422;2023-11-21T14:40:26;8.43;;;3.20;;
5458;SDS011;2752;49.992;8.422;2023-11-21T14:42:58;8.67;;;3.70;;
5458;SDS011;2752;49.992;8.422;2023-11-21T14:45:25;7.10;;;4.57;;
5458;SDS011;2752;49.992;8.422;2023-11-21T14:47:53;6.37;;;3.37;;
5458;SDS011;2752;49.992;8.422;2023-11-21T14:50:30;8.83;;;3.80;;
5458;SDS011;2752;49.992;8.422;2023-11-21T14:53:13;10.50;;;3.73;;
5458;SDS011;2752;49.992;8.422;2023-11-21T14:55:40;11.83;;;4.90;;
5458;SDS011;2752;49.992;8.422;2023-11-21T14:58:21;10.37;;;4.80;;
5458;SDS011;2752;49.992;8.422;2023-11-21T15:00:52;13.53;;;4.50;;
5458;SDS011;2752;49.992;8.422;2023-11-21T15:03:22;11.60;;;4.00;;
5458;SDS011;2752;49.992;8.422;2023-11-21T15:06:08;8.40;;;3.50;;
5458;SDS011;2752;49.992;8.422;2023-11-21T15:08:48;9.83;;;4.53;;
5458;SDS011;2752;49.992;8.422;2023-11-21T15:11:22;12.37;;;5.00;;
5458;SDS011;2752;49.992;8.422;2023-11-21T15:13:55;11.37;;;4.10;;
5458;SDS011;2752;49.992;8.422;2023-11-21T15:16:22;10.30;;;4.10;;
5458;SDS011;2752;49.992;8.422;2023-11-21T15:18:50;7.73;;;3.90;;